< < Back
Terminal Aerodrome Forecast


Current Version              Previous Versions:   1  2  3  4  5  6  7  8  9  

Terminal Aerodrome Forecast

759
FTUS44 KMRX 212320
TAFTYS
TAF
KTYS 212320Z 2200/2224 36005KT P6SM SCT060
     FM221400 02007KT P6SM SCT060=



Latest METAR

098
SAUS80 KWBC 222100 RRA
MTRTYS
METAR KTYS 222053Z 07006KT 10SM FEW046 16/04 A3016 RMK AO2 SLP212
T01560044 56010


USA.gov is the U.S. government's official web portal to all federal, state and local government web resources and services.